sensor_id;sensor_type;location;lat;lon;timestamp;P1;durP1;ratioP1;P2;durP2;ratioP2
76617;SDS011;65509;42.816;74.648;2023-03-01T00:00:11;28.27;;;11.70;;
76617;SDS011;65509;42.816;74.648;2023-03-01T00:02:36;42.20;;;17.17;;
76617;SDS011;65509;42.816;74.648;2023-03-01T00:05:02;44.90;;;18.92;;
76617;SDS011;65509;42.816;74.648;2023-03-01T00:07:28;37.10;;;15.05;;
76617;SDS011;65509;42.816;74.648;2023-03-01T00:09:53;27.67;;;11.43;;
76617;SDS011;65509;42.816;74.648;2023-03-01T00:12:19;22.67;;;8.60;;
76617;SDS011;65509;42.816;74.648;2023-03-01T00:14:44;23.13;;;8.55;;
76617;SDS011;65509;42.816;74.648;2023-03-01T00:17:10;18.75;;;6.78;;
76617;SDS011;65509;42.816;74.648;2023-03-01T00:19:35;22.80;;;6.53;;
76617;SDS011;65509;42.816;74.648;2023-03-01T00:22:00;19.52;;;6.05;;
76617;SDS011;65509;42.816;74.648;2023-03-01T00:24:26;17.75;;;5.10;;
76617;SDS011;65509;42.816;74.648;2023-03-01T00:26:54;19.15;;;4.40;;
76617;SDS011;65509;42.816;74.648;2023-03-01T00:29:24;19.05;;;5.10;;
76617;SDS011;65509;42.816;74.648;2023-03-01T00:31:50;15.00;;;3.65;;
76617;SDS011;65509;42.816;74.648;2023-03-01T00:34:16;11.38;;;4.45;;
76617;SDS011;65509;42.816;74.648;2023-03-01T00:36:41;15.07;;;4.30;;
76617;SDS011;65509;42.816;74.648;2023-03-01T00:39:09;14.07;;;4.07;;
76617;SDS011;65509;42.816;74.648;2023-03-01T00:41:35;20.60;;;4.60;;
76617;SDS011;65509;42.816;74.648;2023-03-01T00:44:01;16.70;;;4.53;;
76617;SDS011;65509;42.816;74.648;2023-03-01T00:46:26;17.33;;;4.40;;
76617;SDS011;65509;42.816;74.648;2023-03-01T00:48:52;13.77;;;3.72;;
76617;SDS011;65509;42.816;74.648;2023-03-01T00:53:43;15.80;;;3.72;;
76617;SDS011;65509;42.816;74.648;2023-03-01T00:56:10;15.90;;;3.80;;
76617;SDS011;65509;42.816;74.648;2023-03-01T00:58:35;16.50;;;4.30;;
76617;SDS011;65509;42.816;74.648;2023-03-01T01:01:06;18.38;;;5.80;;
76617;SDS011;65509;42.816;74.648;2023-03-01T01:03:32;28.83;;;7.05;;
76617;SDS011;65509;42.816;74.648;2023-03-01T01:05:57;18.35;;;6.97;;
76617;SDS011;65509;42.816;74.648;2023-03-01T01:08:22;30.38;;;8.98;;
76617;SDS011;65509;42.816;74.648;2023-03-01T01:10:48;34.25;;;9.02;;
76617;SDS011;65509;42.816;74.648;2023-03-01T01:13:13;22.50;;;8.82;;
76617;SDS011;65509;42.816;74.648;2023-03-01T01:15:39;22.88;;;8.10;;
76617;SDS011;65509;42.816;74.648;2023-03-01T01:18:04;23.52;;;6.97;;
76617;SDS011;65509;42.816;74.648;2023-03-01T01:20:30;16.85;;;5.28;;
76617;SDS011;65509;42.816;74.648;2023-03-01T01:22:55;20.65;;;4.82;;
76617;SDS011;65509;42.816;74.648;2023-03-01T01:25:21;18.85;;;5.72;;
76617;SDS011;65509;42.816;74.648;2023-03-01T01:27:46;34.78;;;9.45;;
76617;SDS011;65509;42.816;74.648;2023-03-01T01:30:12;32.03;;;11.38;;
76617;SDS011;65509;42.816;74.648;2023-03-01T01:32:38;36.90;;;12.50;;
76617;SDS011;65509;42.816;74.648;2023-03-01T01:35:03;37.92;;;9.25;;
76617;SDS011;65509;42.816;74.648;2023-03-01T01:37:29;29.83;;;6.47;;
76617;SDS011;65509;42.816;74.648;2023-03-01T01:39:58;19.13;;;5.30;;
76617;SDS011;65509;42.816;74.648;2023-03-01T01:42:24;25.92;;;5.28;;
76617;SDS011;65509;42.816;74.648;2023-03-01T01:45:15;15.15;;;4.80;;
76617;SDS011;65509;42.816;74.648;2023-03-01T01:47:35;18.70;;;4.20;;
76617;SDS011;65509;42.816;74.648;2023-03-01T01:50:00;15.13;;;3.65;;
76617;SDS011;65509;42.816;74.648;2023-03-01T01:57:24;33.08;;;6.07;;
76617;SDS011;65509;42.816;74.648;2023-03-01T01:59:52;39.00;;;7.20;;
76617;SDS011;65509;42.816;74.648;2023-03-01T02:02:17;40.80;;;6.85;;
76617;SDS011;65509;42.816;74.648;2023-03-01T02:04:43;29.88;;;6.60;;
76617;SDS011;65509;42.816;74.648;2023-03-01T02:07:13;34.90;;;7.18;;
76617;SDS011;65509;42.816;74.648;2023-03-01T02:09:39;26.83;;;5.82;;
76617;SDS011;65509;42.816;74.648;2023-03-01T02:12:06;40.72;;;12.13;;
76617;SDS011;65509;42.816;74.648;2023-03-01T02:14:32;65.43;;;21.08;;
76617;SDS011;65509;42.816;74.648;2023-03-01T02:16:57;69.32;;;22.30;;
76617;SDS011;65509;42.816;74.648;2023-03-01T02:19:26;49.53;;;16.02;;
76617;SDS011;65509;42.816;74.648;2023-03-01T02:22:30;31.52;;;12.27;;
76617;SDS011;65509;42.816;74.648;2023-03-01T02:30:20;20.75;;;5.50;;
76617;SDS011;65509;42.816;74.648;2023-03-01T02:32:46;22.63;;;5.95;;
76617;SDS011;65509;42.816;74.648;2023-03-01T02:35:13;20.40;;;6.25;;
76617;SDS011;65509;42.816;74.648;2023-03-01T02:37:39;25.95;;;8.50;;
76617;SDS011;65509;42.816;74.648;2023-03-01T02:40:07;35.92;;;7.53;;
76617;SDS011;65509;42.816;74.648;2023-03-01T02:42:39;26.05;;;9.35;;
76617;SDS011;65509;42.816;74.648;2023-03-01T02:45:07;38.45;;;13.18;;
76617;SDS011;65509;42.816;74.648;2023-03-01T02:47:32;31.35;;;13.10;;
76617;SDS011;65509;42.816;74.648;2023-03-01T02:49:57;30.95;;;12.18;;
76617;SDS011;65509;42.816;74.648;2023-03-01T02:57:36;29.73;;;10.25;;
76617;SDS011;65509;42.816;74.648;2023-03-01T03:00:05;25.02;;;8.52;;
76617;SDS011;65509;42.816;74.648;2023-03-01T03:02:32;24.67;;;7.38;;
76617;SDS011;65509;42.816;74.648;2023-03-01T03:05:04;26.98;;;8.05;;
76617;SDS011;65509;42.816;74.648;2023-03-01T03:07:31;23.73;;;8.20;;
76617;SDS011;65509;42.816;74.648;2023-03-01T03:09:57;21.25;;;6.45;;
76617;SDS011;65509;42.816;74.648;2023-03-01T03:12:22;20.13;;;4.85;;
76617;SDS011;65509;42.816;74.648;2023-03-01T03:14:48;13.95;;;4.57;;
76617;SDS011;65509;42.816;74.648;2023-03-01T03:17:14;12.77;;;3.80;;
76617;SDS011;65509;42.816;74.648;2023-03-01T03:19:39;19.50;;;3.95;;
76617;SDS011;65509;42.816;74.648;2023-03-01T03:22:04;11.77;;;3.03;;
76617;SDS011;65509;42.816;74.648;2023-03-01T03:24:30;18.40;;;3.80;;
76617;SDS011;65509;42.816;74.648;2023-03-01T03:27:03;10.80;;;3.15;;
76617;SDS011;65509;42.816;74.648;2023-03-01T03:29:28;12.05;;;2.97;;
76617;SDS011;65509;42.816;74.648;2023-03-01T03:31:53;20.83;;;3.38;;
76617;SDS011;65509;42.816;74.648;2023-03-01T03:34:19;9.50;;;2.58;;
76617;SDS011;65509;42.816;74.648;2023-03-01T03:36:44;14.15;;;3.05;;
76617;SDS011;65509;42.816;74.648;2023-03-01T03:39:10;9.75;;;3.03;;
76617;SDS011;65509;42.816;74.648;2023-03-01T03:41:35;18.52;;;4.10;;
76617;SDS011;65509;42.816;74.648;2023-03-01T03:44:01;12.57;;;3.42;;
76617;SDS011;65509;42.816;74.648;2023-03-01T03:46:26;20.23;;;5.68;;
76617;SDS011;65509;42.816;74.648;2023-03-01T03:48:51;20.27;;;5.70;;
76617;SDS011;65509;42.816;74.648;2023-03-01T03:51:17;15.93;;;4.55;;
76617;SDS011;65509;42.816;74.648;2023-03-01T03:53:43;16.38;;;5.13;;
76617;SDS011;65509;42.816;74.648;2023-03-01T03:56:08;14.85;;;5.07;;
76617;SDS011;65509;42.816;74.648;2023-03-01T03:58:34;19.13;;;5.70;;
76617;SDS011;65509;42.816;74.648;2023-03-01T04:00:59;15.98;;;5.13;;
76617;SDS011;65509;42.816;74.648;2023-03-01T04:03:28;14.75;;;3.63;;
76617;SDS011;65509;42.816;74.648;2023-03-01T04:05:57;13.85;;;3.28;;
76617;SDS011;65509;42.816;74.648;2023-03-01T04:08:23;8.82;;;3.00;;
76617;SDS011;65509;42.816;74.648;2023-03-01T04:10:50;19.17;;;4.22;;
76617;SDS011;65509;42.816;74.648;2023-03-01T04:13:17;15.00;;;3.90;;
76617;SDS011;65509;42.816;74.648;2023-03-01T04:15:44;20.63;;;4.55;;
76617;SDS011;65509;42.816;74.648;2023-03-01T04:18:13;9.60;;;3.13;;
76617;SDS011;65509;42.816;74.648;2023-03-01T04:20:39;12.20;;;3.63;;
76617;SDS011;65509;42.816;74.648;2023-03-01T04:23:06;15.18;;;3.22;;
76617;SDS011;65509;42.816;74.648;2023-03-01T04:25:51;11.57;;;2.97;;
76617;SDS011;65509;42.816;74.648;2023-03-01T04:28:26;9.68;;;2.60;;
76617;SDS011;65509;42.816;74.648;2023-03-01T04:30:56;9.38;;;2.67;;
76617;SDS011;65509;42.816;74.648;2023-03-01T04:33:22;8.70;;;2.55;;
76617;SDS011;65509;42.816;74.648;2023-03-01T04:35:48;10.82;;;2.78;;
76617;SDS011;65509;42.816;74.648;2023-03-01T04:38:16;12.70;;;2.83;;
76617;SDS011;65509;42.816;74.648;2023-03-01T04:40:42;11.38;;;3.25;;
76617;SDS011;65509;42.816;74.648;2023-03-01T04:43:11;17.13;;;4.10;;
76617;SDS011;65509;42.816;74.648;2023-03-01T04:45:39;13.00;;;3.78;;
76617;SDS011;65509;42.816;74.648;2023-03-01T04:48:04;18.52;;;4.97;;
76617;SDS011;65509;42.816;74.648;2023-03-01T04:50:30;22.02;;;5.68;;
76617;SDS011;65509;42.816;74.648;2023-03-01T04:52:56;19.15;;;4.78;;
76617;SDS011;65509;42.816;74.648;2023-03-01T04:55:24;19.02;;;5.47;;
76617;SDS011;65509;42.816;74.648;2023-03-01T04:57:51;15.88;;;5.40;;
76617;SDS011;65509;42.816;74.648;2023-03-01T05:00:19;15.30;;;3.85;;
76617;SDS011;65509;42.816;74.648;2023-03-01T05:02:45;17.45;;;4.93;;
76617;SDS011;65509;42.816;74.648;2023-03-01T05:05:11;10.23;;;3.53;;
76617;SDS011;65509;42.816;74.648;2023-03-01T05:07:36;10.88;;;3.70;;
76617;SDS011;65509;42.816;74.648;2023-03-01T05:10:02;10.32;;;3.53;;
76617;SDS011;65509;42.816;74.648;2023-03-01T05:12:27;10.73;;;3.22;;
76617;SDS011;65509;42.816;74.648;2023-03-01T05:14:52;9.18;;;3.42;;
76617;SDS011;65509;42.816;74.648;2023-03-01T05:17:18;12.77;;;3.70;;
76617;SDS011;65509;42.816;74.648;2023-03-01T05:19:43;13.30;;;4.53;;
76617;SDS011;65509;42.816;74.648;2023-03-01T05:22:08;13.75;;;4.75;;
76617;SDS011;65509;42.816;74.648;2023-03-01T05:24:34;13.60;;;4.78;;
76617;SDS011;65509;42.816;74.648;2023-03-01T05:27:00;16.15;;;4.82;;
76617;SDS011;65509;42.816;74.648;2023-03-01T05:29:27;13.25;;;4.50;;
76617;SDS011;65509;42.816;74.648;2023-03-01T05:31:56;19.58;;;6.18;;
76617;SDS011;65509;42.816;74.648;2023-03-01T05:34:23;15.50;;;4.45;;
76617;SDS011;65509;42.816;74.648;2023-03-01T05:36:50;18.67;;;5.45;;
76617;SDS011;65509;42.816;74.648;2023-03-01T05:39:19;14.20;;;4.85;;
76617;SDS011;65509;42.816;74.648;2023-03-01T05:41:46;18.55;;;6.18;;
76617;SDS011;65509;42.816;74.648;2023-03-01T05:44:11;16.83;;;6.07;;
76617;SDS011;65509;42.816;74.648;2023-03-01T05:46:37;20.50;;;5.20;;
76617;SDS011;65509;42.816;74.648;2023-03-01T05:49:02;23.75;;;4.82;;
76617;SDS011;65509;42.816;74.648;2023-03-01T05:51:29;17.77;;;4.22;;
76617;SDS011;65509;42.816;74.648;2023-03-01T05:53:54;10.80;;;3.42;;
76617;SDS011;65509;42.816;74.648;2023-03-01T05:56:20;18.80;;;3.92;;
76617;SDS011;65509;42.816;74.648;2023-03-01T05:58:50;13.38;;;4.50;;
76617;SDS011;65509;42.816;74.648;2023-03-01T06:01:16;14.93;;;4.50;;
76617;SDS011;65509;42.816;74.648;2023-03-01T06:03:41;18.15;;;4.45;;
76617;SDS011;65509;42.816;74.648;2023-03-01T06:06:06;15.10;;;3.60;;
76617;SDS011;65509;42.816;74.648;2023-03-01T06:08:32;14.50;;;3.95;;
76617;SDS011;65509;42.816;74.648;2023-03-01T06:10:57;10.27;;;3.90;;
76617;SDS011;65509;42.816;74.648;2023-03-01T06:13:26;23.65;;;5.20;;
76617;SDS011;65509;42.816;74.648;2023-03-01T06:15:54;22.75;;;5.28;;
76617;SDS011;65509;42.816;74.648;2023-03-01T06:18:25;15.00;;;4.78;;
76617;SDS011;65509;42.816;74.648;2023-03-01T06:20:54;16.98;;;4.75;;
76617;SDS011;65509;42.816;74.648;2023-03-01T06:23:20;13.38;;;3.33;;
76617;SDS011;65509;42.816;74.648;2023-03-01T06:25:45;11.02;;;3.58;;
76617;SDS011;65509;42.816;74.648;2023-03-01T06:28:11;12.50;;;3.80;;
76617;SDS011;65509;42.816;74.648;2023-03-01T06:30:36;12.68;;;3.60;;
76617;SDS011;65509;42.816;74.648;2023-03-01T06:33:02;13.32;;;3.28;;
76617;SDS011;65509;42.816;74.648;2023-03-01T06:35:30;11.25;;;3.90;;
76617;SDS011;65509;42.816;74.648;2023-03-01T06:37:56;14.32;;;3.83;;
76617;SDS011;65509;42.816;74.648;2023-03-01T06:40:22;8.75;;;2.72;;
76617;SDS011;65509;42.816;74.648;2023-03-01T06:42:48;14.77;;;3.70;;
76617;SDS011;65509;42.816;74.648;2023-03-01T06:45:14;9.20;;;2.65;;
76617;SDS011;65509;42.816;74.648;2023-03-01T06:47:40;9.48;;;2.90;;
76617;SDS011;65509;42.816;74.648;2023-03-01T06:50:05;23.35;;;2.97;;
76617;SDS011;65509;42.816;74.648;2023-03-01T06:52:31;18.65;;;4.30;;
76617;SDS011;65509;42.816;74.648;2023-03-01T06:54:56;22.20;;;3.83;;
76617;SDS011;65509;42.816;74.648;2023-03-01T06:57:22;17.30;;;3.60;;
76617;SDS011;65509;42.816;74.648;2023-03-01T06:59:48;23.77;;;3.40;;
76617;SDS011;65509;42.816;74.648;2023-03-01T07:02:13;14.80;;;2.90;;
76617;SDS011;65509;42.816;74.648;2023-03-01T07:04:40;12.77;;;3.00;;
76617;SDS011;65509;42.816;74.648;2023-03-01T07:07:05;11.15;;;2.70;;
76617;SDS011;65509;42.816;74.648;2023-03-01T07:09:31;10.65;;;2.55;;
76617;SDS011;65509;42.816;74.648;2023-03-01T07:11:56;10.90;;;2.92;;
76617;SDS011;65509;42.816;74.648;2023-03-01T07:14:22;11.40;;;2.75;;
76617;SDS011;65509;42.816;74.648;2023-03-01T07:16:49;20.85;;;4.25;;
76617;SDS011;65509;42.816;74.648;2023-03-01T07:19:15;13.18;;;3.42;;
76617;SDS011;65509;42.816;74.648;2023-03-01T07:21:40;11.15;;;2.92;;
76617;SDS011;65509;42.816;74.648;2023-03-01T07:24:06;18.15;;;3.20;;
76617;SDS011;65509;42.816;74.648;2023-03-01T07:26:31;10.38;;;3.20;;
76617;SDS011;65509;42.816;74.648;2023-03-01T07:28:58;15.93;;;3.60;;
76617;SDS011;65509;42.816;74.648;2023-03-01T07:31:26;11.80;;;3.30;;
76617;SDS011;65509;42.816;74.648;2023-03-01T07:33:55;15.50;;;3.70;;
76617;SDS011;65509;42.816;74.648;2023-03-01T07:36:20;14.55;;;3.00;;
76617;SDS011;65509;42.816;74.648;2023-03-01T07:38:46;15.50;;;3.38;;
76617;SDS011;65509;42.816;74.648;2023-03-01T07:41:11;13.95;;;3.45;;
76617;SDS011;65509;42.816;74.648;2023-03-01T07:43:36;20.48;;;2.97;;
76617;SDS011;65509;42.816;74.648;2023-03-01T07:46:02;13.00;;;2.95;;
76617;SDS011;65509;42.816;74.648;2023-03-01T07:48:28;20.17;;;2.97;;
76617;SDS011;65509;42.816;74.648;2023-03-01T07:50:54;13.88;;;2.75;;
76617;SDS011;65509;42.816;74.648;2023-03-01T07:53:19;15.50;;;3.03;;
76617;SDS011;65509;42.816;74.648;2023-03-01T07:55:45;26.88;;;5.82;;
76617;SDS011;65509;42.816;74.648;2023-03-01T07:58:10;42.25;;;12.85;;
76617;SDS011;65509;42.816;74.648;2023-03-01T08:00:35;29.73;;;10.90;;
76617;SDS011;65509;42.816;74.648;2023-03-01T08:03:01;40.53;;;12.43;;
76617;SDS011;65509;42.816;74.648;2023-03-01T08:05:27;38.78;;;12.85;;
76617;SDS011;65509;42.816;74.648;2023-03-01T08:07:55;46.13;;;12.60;;
76617;SDS011;65509;42.816;74.648;2023-03-01T08:10:22;41.90;;;13.07;;
76617;SDS011;65509;42.816;74.648;2023-03-01T08:12:50;62.97;;;16.73;;
76617;SDS011;65509;42.816;74.648;2023-03-01T08:15:15;49.55;;;14.93;;
76617;SDS011;65509;42.816;74.648;2023-03-01T08:17:42;52.22;;;15.35;;
76617;SDS011;65509;42.816;74.648;2023-03-01T08:20:07;62.20;;;17.35;;
76617;SDS011;65509;42.816;74.648;2023-03-01T08:22:34;58.25;;;18.75;;
76617;SDS011;65509;42.816;74.648;2023-03-01T08:25:02;76.80;;;19.83;;
76617;SDS011;65509;42.816;74.648;2023-03-01T08:27:27;62.28;;;18.85;;
76617;SDS011;65509;42.816;74.648;2023-03-01T08:29:52;52.00;;;17.90;;
76617;SDS011;65509;42.816;74.648;2023-03-01T08:32:18;59.33;;;20.50;;
76617;SDS011;65509;42.816;74.648;2023-03-01T08:34:46;48.97;;;17.85;;
76617;SDS011;65509;42.816;74.648;2023-03-01T08:37:11;50.55;;;18.35;;
76617;SDS011;65509;42.816;74.648;2023-03-01T08:39:36;52.58;;;20.30;;
76617;SDS011;65509;42.816;74.648;2023-03-01T08:42:02;53.92;;;20.20;;
76617;SDS011;65509;42.816;74.648;2023-03-01T08:44:27;59.38;;;20.23;;
76617;SDS011;65509;42.816;74.648;2023-03-01T08:46:53;52.67;;;18.70;;
76617;SDS011;65509;42.816;74.648;2023-03-01T08:49:20;55.20;;;18.35;;
76617;SDS011;65509;42.816;74.648;2023-03-01T08:51:46;47.50;;;17.67;;
76617;SDS011;65509;42.816;74.648;2023-03-01T08:54:13;54.70;;;17.92;;
76617;SDS011;65509;42.816;74.648;2023-03-01T08:56:39;52.03;;;18.42;;
76617;SDS011;65509;42.816;74.648;2023-03-01T08:59:05;44.55;;;17.35;;
76617;SDS011;65509;42.816;74.648;2023-03-01T09:01:36;42.63;;;18.40;;
76617;SDS011;65509;42.816;74.648;2023-03-01T09:04:02;51.30;;;19.63;;
76617;SDS011;65509;42.816;74.648;2023-03-01T09:06:32;55.25;;;17.98;;
76617;SDS011;65509;42.816;74.648;2023-03-01T09:08:58;54.60;;;14.25;;
76617;SDS011;65509;42.816;74.648;2023-03-01T09:11:23;49.05;;;13.02;;
76617;SDS011;65509;42.816;74.648;2023-03-01T09:13:49;40.78;;;13.70;;
76617;SDS011;65509;42.816;74.648;2023-03-01T09:16:15;46.80;;;12.73;;
76617;SDS011;65509;42.816;74.648;2023-03-01T09:18:41;46.88;;;13.48;;
76617;SDS011;65509;42.816;74.648;2023-03-01T09:21:08;48.92;;;12.82;;
76617;SDS011;65509;42.816;74.648;2023-03-01T09:23:37;31.38;;;10.85;;
76617;SDS011;65509;42.816;74.648;2023-03-01T09:26:04;32.60;;;9.73;;
76617;SDS011;65509;42.816;74.648;2023-03-01T09:28:30;37.38;;;11.75;;
76617;SDS011;65509;42.816;74.648;2023-03-01T09:30:59;33.10;;;10.85;;
76617;SDS011;65509;42.816;74.648;2023-03-01T09:33:25;33.88;;;10.40;;
76617;SDS011;65509;42.816;74.648;2023-03-01T09:35:55;39.15;;;12.10;;
76617;SDS011;65509;42.816;74.648;2023-03-01T09:38:20;44.38;;;9.52;;
76617;SDS011;65509;42.816;74.648;2023-03-01T09:40:46;38.47;;;11.20;;
76617;SDS011;65509;42.816;74.648;2023-03-01T09:43:15;45.00;;;9.27;;
76617;SDS011;65509;42.816;74.648;2023-03-01T09:45:44;35.63;;;10.10;;
76617;SDS011;65509;42.816;74.648;2023-03-01T09:48:13;29.70;;;10.48;;
76617;SDS011;65509;42.816;74.648;2023-03-01T09:50:41;46.83;;;12.18;;
76617;SDS011;65509;42.816;74.648;2023-03-01T09:53:21;50.47;;;11.75;;
76617;SDS011;65509;42.816;74.648;2023-03-01T10:01:21;32.90;;;10.50;;
76617;SDS011;65509;42.816;74.648;2023-03-01T10:04:00;51.88;;;13.40;;
76617;SDS011;65509;42.816;74.648;2023-03-01T10:06:27;53.45;;;12.30;;
76617;SDS011;65509;42.816;74.648;2023-03-01T10:08:54;40.70;;;11.82;;
76617;SDS011;65509;42.816;74.648;2023-03-01T10:16:22;34.83;;;10.00;;
76617;SDS011;65509;42.816;74.648;2023-03-01T10:19:00;37.45;;;12.15;;
76617;SDS011;65509;42.816;74.648;2023-03-01T10:21:27;46.83;;;9.90;;
76617;SDS011;65509;42.816;74.648;2023-03-01T10:23:53;39.03;;;9.80;;
76617;SDS011;65509;42.816;74.648;2023-03-01T10:32:10;47.67;;;10.18;;
76617;SDS011;65509;42.816;74.648;2023-03-01T10:34:36;30.00;;;8.52;;
76617;SDS011;65509;42.816;74.648;2023-03-01T10:37:12;46.15;;;8.90;;
76617;SDS011;65509;42.816;74.648;2023-03-01T10:39:54;53.63;;;10.57;;
76617;SDS011;65509;42.816;74.648;2023-03-01T10:42:22;39.42;;;8.68;;
76617;SDS011;65509;42.816;74.648;2023-03-01T10:44:50;37.67;;;10.65;;
76617;SDS011;65509;42.816;74.648;2023-03-01T10:47:18;27.52;;;8.95;;
76617;SDS011;65509;42.816;74.648;2023-03-01T10:50:04;40.88;;;9.15;;
76617;SDS011;65509;42.816;74.648;2023-03-01T10:52:32;41.25;;;11.02;;
76617;SDS011;65509;42.816;74.648;2023-03-01T10:55:02;45.97;;;13.27;;
76617;SDS011;65509;42.816;74.648;2023-03-01T10:57:35;38.75;;;14.82;;
76617;SDS011;65509;42.816;74.648;2023-03-01T11:02:36;43.08;;;13.75;;
76617;SDS011;65509;42.816;74.648;2023-03-01T11:05:20;41.67;;;11.55;;
76617;SDS011;65509;42.816;74.648;2023-03-01T11:10:21;38.03;;;11.02;;
76617;SDS011;65509;42.816;74.648;2023-03-01T11:12:47;28.55;;;9.27;;
76617;SDS011;65509;42.816;74.648;2023-03-01T11:15:19;29.67;;;9.73;;
76617;SDS011;65509;42.816;74.648;2023-03-01T11:17:45;47.17;;;10.00;;
76617;SDS011;65509;42.816;74.648;2023-03-01T11:25:25;60.55;;;16.77;;
76617;SDS011;65509;42.816;74.648;2023-03-01T11:27:51;36.97;;;12.52;;
76617;SDS011;65509;42.816;74.648;2023-03-01T11:30:21;60.97;;;13.57;;
76617;SDS011;65509;42.816;74.648;2023-03-01T11:35:18;29.38;;;9.73;;
76617;SDS011;65509;42.816;74.648;2023-03-01T11:40:23;44.28;;;12.07;;
76617;SDS011;65509;42.816;74.648;2023-03-01T11:45:17;32.08;;;11.65;;
76617;SDS011;65509;42.816;74.648;2023-03-01T11:55:22;59.05;;;17.25;;
76617;SDS011;65509;42.816;74.648;2023-03-01T12:05:24;55.05;;;16.83;;
76617;SDS011;65509;42.816;74.648;2023-03-01T12:07:57;36.22;;;9.52;;
76617;SDS011;65509;42.816;74.648;2023-03-01T12:10:26;44.15;;;12.15;;
76617;SDS011;65509;42.816;74.648;2023-03-01T12:15:33;37.97;;;11.75;;
76617;SDS011;65509;42.816;74.648;2023-03-01T12:20:37;40.60;;;13.27;;
76617;SDS011;65509;42.816;74.648;2023-03-01T12:31:32;63.03;;;20.52;;
76617;SDS011;65509;42.816;74.648;2023-03-01T12:36:37;51.38;;;12.38;;
76617;SDS011;65509;42.816;74.648;2023-03-01T12:44:31;39.97;;;10.32;;
76617;SDS011;65509;42.816;74.648;2023-03-01T12:52:19;48.45;;;9.60;;
76617;SDS011;65509;42.816;74.648;2023-03-01T12:54:47;30.35;;;7.70;;
76617;SDS011;65509;42.816;74.648;2023-03-01T12:57:21;39.90;;;8.45;;
76617;SDS011;65509;42.816;74.648;2023-03-01T12:59:59;44.15;;;9.80;;
76617;SDS011;65509;42.816;74.648;2023-03-01T13:02:37;103.28;;;30.67;;
76617;SDS011;65509;42.816;74.648;2023-03-01T13:07:45;52.50;;;16.77;;
76617;SDS011;65509;42.816;74.648;2023-03-01T13:17:49;35.97;;;12.70;;
76617;SDS011;65509;42.816;74.648;2023-03-01T13:20:15;60.05;;;13.77;;
76617;SDS011;65509;42.816;74.648;2023-03-01T13:22:42;155.48;;;53.83;;
76617;SDS011;65509;42.816;74.648;2023-03-01T13:27:39;153.43;;;57.92;;
76617;SDS011;65509;42.816;74.648;2023-03-01T13:30:12;92.82;;;33.30;;
76617;SDS011;65509;42.816;74.648;2023-03-01T13:32:50;49.53;;;16.88;;
76617;SDS011;65509;42.816;74.648;2023-03-01T13:37:43;46.97;;;15.80;;
76617;SDS011;65509;42.816;74.648;2023-03-01T13:42:44;54.08;;;17.00;;
76617;SDS011;65509;42.816;74.648;2023-03-01T13:45:15;83.03;;;22.60;;
76617;SDS011;65509;42.816;74.648;2023-03-01T13:47:41;67.85;;;20.75;;
76617;SDS011;65509;42.816;74.648;2023-03-01T13:50:15;60.22;;;20.73;;
76617;SDS011;65509;42.816;74.648;2023-03-01T13:57:48;72.88;;;24.83;;
76617;SDS011;65509;42.816;74.648;2023-03-01T14:02:59;113.25;;;46.15;;
76617;SDS011;65509;42.816;74.648;2023-03-01T14:05:25;134.20;;;53.42;;
76617;SDS011;65509;42.816;74.648;2023-03-01T14:07:53;166.60;;;68.70;;
76617;SDS011;65509;42.816;74.648;2023-03-01T14:10:18;211.75;;;90.20;;
76617;SDS011;65509;42.816;74.648;2023-03-01T14:20:20;98.18;;;40.53;;
76617;SDS011;65509;42.816;74.648;2023-03-01T14:22:46;103.07;;;36.85;;
76617;SDS011;65509;42.816;74.648;2023-03-01T14:25:28;96.15;;;36.28;;
76617;SDS011;65509;42.816;74.648;2023-03-01T14:30:42;77.63;;;28.88;;
76617;SDS011;65509;42.816;74.648;2023-03-01T14:33:22;83.97;;;29.10;;
76617;SDS011;65509;42.816;74.648;2023-03-01T14:36:00;72.93;;;28.63;;
76617;SDS011;65509;42.816;74.648;2023-03-01T14:38:31;77.93;;;31.38;;
76617;SDS011;65509;42.816;74.648;2023-03-01T14:40:58;80.15;;;30.02;;
76617;SDS011;65509;42.816;74.648;2023-03-01T14:43:24;68.95;;;25.92;;
76617;SDS011;65509;42.816;74.648;2023-03-01T14:45:51;62.53;;;24.05;;
76617;SDS011;65509;42.816;74.648;2023-03-01T14:48:17;63.83;;;23.70;;
76617;SDS011;65509;42.816;74.648;2023-03-01T14:50:43;68.97;;;27.52;;
76617;SDS011;65509;42.816;74.648;2023-03-01T14:53:17;71.05;;;26.90;;
76617;SDS011;65509;42.816;74.648;2023-03-01T14:55:44;65.75;;;26.58;;
76617;SDS011;65509;42.816;74.648;2023-03-01T14:58:15;86.00;;;30.52;;
76617;SDS011;65509;42.816;74.648;2023-03-01T15:00:46;68.80;;;28.15;;
76617;SDS011;65509;42.816;74.648;2023-03-01T15:03:14;92.72;;;29.83;;
76617;SDS011;65509;42.816;74.648;2023-03-01T15:05:42;97.93;;;35.55;;
76617;SDS011;65509;42.816;74.648;2023-03-01T15:08:11;97.88;;;35.88;;
76617;SDS011;65509;42.816;74.648;2023-03-01T15:10:41;77.25;;;30.60;;
76617;SDS011;65509;42.816;74.648;2023-03-01T15:13:24;95.07;;;31.13;;
76617;SDS011;65509;42.816;74.648;2023-03-01T15:15:50;67.75;;;28.48;;
76617;SDS011;65509;42.816;74.648;2023-03-01T15:20:42;61.72;;;23.85;;
76617;SDS011;65509;42.816;74.648;2023-03-01T15:23:17;64.75;;;23.83;;
76617;SDS011;65509;42.816;74.648;2023-03-01T15:25:54;51.88;;;22.25;;
76617;SDS011;65509;42.816;74.648;2023-03-01T15:28:24;66.05;;;24.48;;
76617;SDS011;65509;42.816;74.648;2023-03-01T15:30:54;63.15;;;24.63;;
76617;SDS011;65509;42.816;74.648;2023-03-01T15:33:34;61.20;;;24.20;;
76617;SDS011;65509;42.816;74.648;2023-03-01T15:36:01;54.40;;;22.20;;
76617;SDS011;65509;42.816;74.648;2023-03-01T15:38:28;51.17;;;21.23;;
76617;SDS011;65509;42.816;74.648;2023-03-01T15:40:55;52.47;;;22.08;;
76617;SDS011;65509;42.816;74.648;2023-03-01T15:43:41;64.07;;;23.20;;
76617;SDS011;65509;42.816;74.648;2023-03-01T15:46:23;57.35;;;21.42;;
76617;SDS011;65509;42.816;74.648;2023-03-01T15:48:55;58.13;;;21.70;;
76617;SDS011;65509;42.816;74.648;2023-03-01T15:54:06;59.00;;;20.50;;
76617;SDS011;65509;42.816;74.648;2023-03-01T15:56:32;66.38;;;24.73;;
76617;SDS011;65509;42.816;74.648;2023-03-01T15:58:59;74.93;;;26.85;;
76617;SDS011;65509;42.816;74.648;2023-03-01T16:01:25;73.30;;;24.92;;
76617;SDS011;65509;42.816;74.648;2023-03-01T16:03:51;53.63;;;18.85;;
76617;SDS011;65509;42.816;74.648;2023-03-01T16:06:16;56.35;;;19.67;;
76617;SDS011;65509;42.816;74.648;2023-03-01T16:08:42;57.17;;;21.30;;
76617;SDS011;65509;42.816;74.648;2023-03-01T16:11:13;65.25;;;23.15;;
76617;SDS011;65509;42.816;74.648;2023-03-01T16:13:39;61.70;;;21.63;;
76617;SDS011;65509;42.816;74.648;2023-03-01T16:16:05;52.50;;;18.20;;
76617;SDS011;65509;42.816;74.648;2023-03-01T16:18:30;48.53;;;17.58;;
76617;SDS011;65509;42.816;74.648;2023-03-01T16:20:56;54.65;;;17.25;;
76617;SDS011;65509;42.816;74.648;2023-03-01T16:23:21;53.10;;;19.40;;
76617;SDS011;65509;42.816;74.648;2023-03-01T16:25:50;51.95;;;21.02;;
76617;SDS011;65509;42.816;74.648;2023-03-01T16:28:15;53.22;;;17.92;;
76617;SDS011;65509;42.816;74.648;2023-03-01T16:30:44;54.78;;;19.05;;
76617;SDS011;65509;42.816;74.648;2023-03-01T16:33:10;49.60;;;15.30;;